Tossa de Mar, Spain
Current Conditions -  °F | °C
As of 6:30 PM on Thursday 23 Oct 2014 (Local Time) from LEGE Reporting Station
Clear Clear  
Wind Chill: 68°   Ceiling: Unl
Heat Index: 68°   Visibility: 6mi
Dew Point: 50°   Wind: 3mph
Humidity: 52%   Direction: 230°SW
Pressure: 30"   Gusts: NA
Location:  41.72°N, 2.93°E
Report Text: LEGE 231630Z 23003KT 190V260 CAVOK 20/10 Q1016
Loading
Personal Weather Stations






























Interactive Weather Map
Tropical Storm Tracking
New forecast layout! Learn more

10-Day Weather Forecast

Advertisements
Track Severe Weather on mobile